createdAt,value
2019-06-09T00:00:58.374Z,2.40
2019-06-09T00:01:54.549Z,2.80
2019-06-09T00:02:54.776Z,2.60
2019-06-09T00:03:57.819Z,2.60
2019-06-09T00:04:57.063Z,2.40
2019-06-09T00:05:58.156Z,2.50
2019-06-09T00:06:57.081Z,2.60
2019-06-09T00:07:57.123Z,2.50
2019-06-09T00:08:57.244Z,2.50
2019-06-09T00:09:57.131Z,2.80
2019-06-09T00:10:59.150Z,2.50
2019-06-09T00:11:57.128Z,2.40
2019-06-09T00:12:57.836Z,2.70
2019-06-09T00:13:57.760Z,2.90
2019-06-09T00:14:57.790Z,2.60
2019-06-09T00:15:57.817Z,2.70
2019-06-09T00:16:57.936Z,2.60
2019-06-09T00:17:57.695Z,2.80
2019-06-09T00:18:57.912Z,3.10
2019-06-09T00:20:02.377Z,2.90
2019-06-09T00:21:01.278Z,2.70
2019-06-09T00:21:58.425Z,2.90
2019-06-09T00:23:01.715Z,2.90
2019-06-09T00:23:58.797Z,3.10
2019-06-09T00:25:01.949Z,3.20
2019-06-09T00:25:59.120Z,2.90
2019-06-09T00:26:59.344Z,2.80
2019-06-09T00:27:59.570Z,3.30
2019-06-09T00:28:59.683Z,3.10
2019-06-09T00:30:10.402Z,2.80
2019-06-09T00:31:02.637Z,3.10
2019-06-09T00:32:00.158Z,2.90
2019-06-09T00:33:04.167Z,2.80
2019-06-09T00:34:02.279Z,2.90
2019-06-09T00:35:00.667Z,2.90
2019-06-09T00:36:00.861Z,2.80
2019-06-09T00:37:02.294Z,2.80
2019-06-09T00:38:03.352Z,2.70
2019-06-09T00:39:03.539Z,3.00
2019-06-09T00:40:04.797Z,2.90
2019-06-09T00:41:02.815Z,2.80
2019-06-09T00:42:02.854Z,2.60
2019-06-09T00:43:04.956Z,2.80
2019-06-09T00:44:03.112Z,3.00
2019-06-09T00:45:04.152Z,2.70
2019-06-09T00:46:05.781Z,3.30
2019-06-09T00:47:04.765Z,3.20
2019-06-09T00:48:03.715Z,3.40
2019-06-09T00:49:06.772Z,3.50
2019-06-09T00:50:04.030Z,3.50
2019-06-09T00:51:09.713Z,3.20
2019-06-09T00:52:05.406Z,3.40
2019-06-09T00:53:05.628Z,3.30
2019-06-09T00:54:06.119Z,3.30
2019-06-09T00:55:06.102Z,3.30
2019-06-09T00:56:06.483Z,3.50
2019-06-09T00:57:12.131Z,3.60
2019-06-09T00:58:07.053Z,3.50
2019-06-09T00:59:13.350Z,3.50
2019-06-09T01:00:09.087Z,3.50
2019-06-09T01:01:09.256Z,3.60
2019-06-09T01:02:13.852Z,3.30
2019-06-09T01:03:08.466Z,3.40
2019-06-09T01:04:09.719Z,3.20
2019-06-09T01:05:10.234Z,3.10
2019-06-09T01:06:08.638Z,3.40
2019-06-09T01:07:10.953Z,3.30
2019-06-09T01:08:08.969Z,3.20
2019-06-09T01:09:08.811Z,3.50
2019-06-09T01:10:13.210Z,3.30
2019-06-09T01:11:09.996Z,3.60
2019-06-09T01:12:09.648Z,3.20
2019-06-09T01:13:09.573Z,3.40
2019-06-09T01:14:10.766Z,3.50
2019-06-09T01:15:12.623Z,3.40
2019-06-09T01:16:11.191Z,3.60
2019-06-09T01:17:10.874Z,3.70
2019-06-09T01:18:10.902Z,3.40
2019-06-09T01:19:10.714Z,3.70
2019-06-09T01:20:12.059Z,3.70
2019-06-09T01:21:10.800Z,3.60
2019-06-09T01:22:10.928Z,3.30
2019-06-09T01:23:10.873Z,3.70
2019-06-09T01:24:12.610Z,3.40
2019-06-09T01:25:12.647Z,3.80
2019-06-09T01:26:10.933Z,3.30
2019-06-09T01:27:11.176Z,3.60
2019-06-09T01:28:14.058Z,3.40
2019-06-09T01:29:12.040Z,3.40
2019-06-09T01:30:15.935Z,3.10
2019-06-09T01:31:11.955Z,3.40
2019-06-09T01:32:20.109Z,3.50
2019-06-09T01:33:12.253Z,3.50
2019-06-09T01:34:12.461Z,3.60
2019-06-09T01:35:17.272Z,3.60
2019-06-09T01:36:12.798Z,3.80
2019-06-09T01:37:14.194Z,4.00
2019-06-09T01:38:14.298Z,3.90
2019-06-09T01:39:14.264Z,3.60
2019-06-09T01:40:14.554Z,3.90
2019-06-09T01:41:14.562Z,4.00
2019-06-09T01:42:17.744Z,3.50
2019-06-09T01:43:14.512Z,3.40
2019-06-09T01:44:14.640Z,3.50
2019-06-09T01:45:14.589Z,3.30
2019-06-09T01:46:19.294Z,3.50
2019-06-09T01:47:17.307Z,3.70
2019-06-09T01:48:18.144Z,3.40
2019-06-09T01:49:17.814Z,3.60
2019-06-09T01:50:16.472Z,3.40
2019-06-09T01:51:18.096Z,3.60
2019-06-09T01:52:18.395Z,3.30
2019-06-09T01:53:18.377Z,3.90
2019-06-09T01:54:20.532Z,3.60
2019-06-09T01:55:19.940Z,4.00
2019-06-09T01:56:18.545Z,4.00
2019-06-09T01:57:18.484Z,4.30
2019-06-09T01:58:21.194Z,4.20
2019-06-09T01:59:27.592Z,4.10
2019-06-09T02:00:20.998Z,4.20
2019-06-09T02:01:22.724Z,4.10
2019-06-09T02:02:40.602Z,4.30
2019-06-09T02:03:21.249Z,4.30
2019-06-09T02:04:19.629Z,4.10
2019-06-09T02:05:21.361Z,3.70
2019-06-09T02:06:21.437Z,4.20
2019-06-09T02:07:20.175Z,4.60
2019-06-09T02:08:21.915Z,4.40
2019-06-09T02:09:21.972Z,4.60
2019-06-09T02:10:22.208Z,4.20
2019-06-09T02:11:21.603Z,4.00
2019-06-09T02:12:22.708Z,4.50
2019-06-09T02:13:22.694Z,4.30
2019-06-09T02:14:21.995Z,4.50
2019-06-09T02:15:25.927Z,3.90
2019-06-09T02:16:23.573Z,4.20
2019-06-09T02:17:23.652Z,4.70
2019-06-09T02:18:23.214Z,4.30
2019-06-09T02:19:23.129Z,4.70
2019-06-09T02:20:22.500Z,4.70
2019-06-09T02:21:22.641Z,4.90
2019-06-09T02:22:22.802Z,4.60
2019-06-09T02:23:23.130Z,4.80
2019-06-09T02:24:23.872Z,4.80
2019-06-09T02:25:23.878Z,4.90
2019-06-09T02:26:29.101Z,5.00
2019-06-09T02:27:23.397Z,4.60
2019-06-09T02:28:23.406Z,4.70
2019-06-09T02:29:24.363Z,4.30
2019-06-09T02:30:33.206Z,4.50
2019-06-09T02:31:31.759Z,4.30
2019-06-09T02:32:34.287Z,4.40
2019-06-09T02:33:40.410Z,4.60
2019-06-09T02:34:28.623Z,4.70
2019-06-09T02:35:33.198Z,4.60
2019-06-09T02:36:38.464Z,5.00
2019-06-09T02:37:31.533Z,5.30
2019-06-09T02:38:29.817Z,5.30
2019-06-09T02:39:32.422Z,4.60
2019-06-09T02:40:27.759Z,5.10
2019-06-09T02:41:31.732Z,5.10
2019-06-09T02:42:30.986Z,5.00
2019-06-09T02:43:37.583Z,5.30
2019-06-09T02:44:32.243Z,5.40
2019-06-09T02:45:29.635Z,5.20
2019-06-09T02:46:30.881Z,5.30
2019-06-09T02:47:36.283Z,5.00
2019-06-09T02:48:32.172Z,5.00
2019-06-09T02:49:36.605Z,5.20
2019-06-09T02:50:30.722Z,5.50
2019-06-09T02:51:36.424Z,5.20
2019-06-09T02:52:37.649Z,5.50
2019-06-09T02:53:33.001Z,5.00
2019-06-09T02:54:40.039Z,5.20
2019-06-09T02:55:32.420Z,4.90
2019-06-09T02:56:32.289Z,5.30
2019-06-09T02:57:33.139Z,4.60
2019-06-09T02:58:41.388Z,4.80
2019-06-09T02:59:38.445Z,5.00
2019-06-09T03:00:34.259Z,5.00
2019-06-09T03:01:41.681Z,5.00
2019-06-09T03:02:40.224Z,4.80
2019-06-09T03:03:49.659Z,4.90
2019-06-09T03:04:44.129Z,4.50
2019-06-09T03:05:36.639Z,4.70
2019-06-09T03:06:36.631Z,4.90
2019-06-09T03:07:37.823Z,4.90
2019-06-09T03:08:35.927Z,5.10
2019-06-09T03:09:39.654Z,5.00
2019-06-09T03:10:37.619Z,4.90
2019-06-09T03:11:38.248Z,4.50
2019-06-09T03:12:39.140Z,4.60
2019-06-09T03:13:37.976Z,4.50
2019-06-09T03:14:39.467Z,4.70
2019-06-09T03:15:39.070Z,4.90
2019-06-09T03:16:37.643Z,4.80
2019-06-09T03:17:40.364Z,4.40
2019-06-09T03:18:39.217Z,4.80
2019-06-09T03:19:42.165Z,4.60
2019-06-09T03:20:40.488Z,4.40
2019-06-09T03:21:40.126Z,4.60
2019-06-09T03:22:40.582Z,4.70
2019-06-09T03:23:39.835Z,5.00
2019-06-09T03:24:41.018Z,5.00
2019-06-09T03:25:39.101Z,4.70
2019-06-09T03:26:39.922Z,4.60
2019-06-09T03:27:41.150Z,4.80
2019-06-09T03:28:39.456Z,4.60
2019-06-09T03:29:41.857Z,4.50
2019-06-09T03:30:51.481Z,4.60
2019-06-09T03:32:03.441Z,4.50
2019-06-09T03:33:14.983Z,4.90
2019-06-09T03:34:53.665Z,4.40
2019-06-09T03:35:33.686Z,4.50
2019-06-09T03:36:19.575Z,4.40
2019-06-09T03:37:14.190Z,4.10
2019-06-09T03:38:11.596Z,4.10
2019-06-09T03:38:48.872Z,4.80
2019-06-09T03:39:42.355Z,4.40
2019-06-09T03:40:45.821Z,4.60
2019-06-09T03:41:39.421Z,4.80
2019-06-09T03:42:39.998Z,5.00
2019-06-09T03:43:43.646Z,4.70
2019-06-09T03:44:42.135Z,4.80
2019-06-09T03:45:43.553Z,5.10
2019-06-09T03:46:41.903Z,5.10
2019-06-09T03:47:42.703Z,4.90
2019-06-09T03:48:43.630Z,4.80
2019-06-09T03:49:41.950Z,5.10
2019-06-09T03:50:47.725Z,4.90
2019-06-09T03:51:42.543Z,4.70
2019-06-09T03:52:43.066Z,4.80
2019-06-09T03:53:46.025Z,4.40
2019-06-09T03:54:42.468Z,4.40
2019-06-09T03:55:44.067Z,4.50
2019-06-09T03:56:45.364Z,4.30
2019-06-09T03:57:41.598Z,4.20
2019-06-09T03:58:46.926Z,4.20
2019-06-09T03:59:47.066Z,4.10
2019-06-09T04:00:48.085Z,3.80
2019-06-09T04:01:43.786Z,3.80
2019-06-09T04:02:44.675Z,3.70
2019-06-09T04:03:45.022Z,3.70
2019-06-09T04:04:46.353Z,3.90
2019-06-09T04:06:06.964Z,4.10
2019-06-09T04:06:51.224Z,3.80
2019-06-09T04:07:44.590Z,3.40
2019-06-09T04:08:45.768Z,3.60
2019-06-09T04:09:43.079Z,3.70
2019-06-09T04:10:44.874Z,3.60
2019-06-09T04:11:44.205Z,4.00
2019-06-09T04:12:44.959Z,4.00
2019-06-09T04:13:45.560Z,4.00
2019-06-09T04:14:45.051Z,3.80
2019-06-09T04:15:44.087Z,4.20
2019-06-09T04:16:46.933Z,4.00
2019-06-09T04:17:44.596Z,4.10
2019-06-09T04:18:45.706Z,3.90
2019-06-09T04:19:46.897Z,4.20
2019-06-09T04:20:45.770Z,4.00
2019-06-09T04:21:45.355Z,4.10
2019-06-09T04:22:50.256Z,4.00
2019-06-09T04:23:45.937Z,3.90
2019-06-09T04:24:44.775Z,4.20
2019-06-09T04:25:45.986Z,3.90
2019-06-09T04:26:45.193Z,4.30
2019-06-09T04:27:51.509Z,4.10
2019-06-09T04:28:45.987Z,4.00
2019-06-09T04:29:45.782Z,3.90
2019-06-09T04:30:49.101Z,4.10
2019-06-09T04:31:46.174Z,4.00
2019-06-09T04:32:48.097Z,4.20
2019-06-09T04:33:48.097Z,4.10
2019-06-09T04:34:46.755Z,4.10
2019-06-09T04:36:11.062Z,3.80
2019-06-09T04:36:57.662Z,3.90
2019-06-09T04:37:47.329Z,3.60
2019-06-09T04:38:47.525Z,3.80
2019-06-09T04:39:47.740Z,3.70
2019-06-09T04:40:47.966Z,3.60
2019-06-09T04:41:48.171Z,3.60
2019-06-09T04:42:52.135Z,3.50
2019-06-09T04:43:51.450Z,3.30
2019-06-09T04:44:52.061Z,3.40
2019-06-09T04:45:52.481Z,3.40
2019-06-09T04:46:52.414Z,3.50
2019-06-09T04:47:52.357Z,3.30
2019-06-09T04:48:52.849Z,3.40
2019-06-09T04:49:52.584Z,3.30
2019-06-09T04:50:52.628Z,3.50
2019-06-09T04:51:53.258Z,3.30
2019-06-09T04:52:52.294Z,3.20
2019-06-09T04:53:52.949Z,3.30
2019-06-09T04:54:52.174Z,3.20
2019-06-09T04:55:52.785Z,3.10
2019-06-09T04:56:53.474Z,3.40
2019-06-09T04:57:52.493Z,3.20
2019-06-09T04:58:59.045Z,3.40
2019-06-09T04:59:52.809Z,3.50
2019-06-09T05:00:52.683Z,3.30
2019-06-09T05:01:53.654Z,3.20
2019-06-09T05:02:53.363Z,3.10
2019-06-09T05:03:52.898Z,3.10
2019-06-09T05:04:53.905Z,3.30
2019-06-09T05:05:53.838Z,3.20
2019-06-09T05:07:15.034Z,3.40
2019-06-09T05:08:02.144Z,3.10
2019-06-09T05:08:54.110Z,3.30
2019-06-09T05:09:53.843Z,3.10
2019-06-09T05:10:54.071Z,3.30
2019-06-09T05:11:56.096Z,2.90
2019-06-09T05:12:54.452Z,3.10
2019-06-09T05:13:54.546Z,3.10
2019-06-09T05:14:54.774Z,3.10
2019-06-09T05:15:54.985Z,3.20
2019-06-09T05:16:55.200Z,2.90
2019-06-09T05:17:55.434Z,3.20
2019-06-09T05:18:56.815Z,2.90
2019-06-09T05:19:56.025Z,3.00
2019-06-09T05:20:57.607Z,3.00
2019-06-09T05:22:02.664Z,3.00
2019-06-09T05:22:56.313Z,3.00
2019-06-09T05:23:56.521Z,3.20
2019-06-09T05:24:56.728Z,2.90
2019-06-09T05:26:02.262Z,2.90
2019-06-09T05:26:57.045Z,3.00
2019-06-09T05:27:57.261Z,3.00
2019-06-09T05:28:57.465Z,2.80
2019-06-09T05:29:57.690Z,2.60
2019-06-09T05:30:57.899Z,2.70
2019-06-09T05:31:58.099Z,2.60
2019-06-09T05:33:02.287Z,2.80
2019-06-09T05:34:02.310Z,2.70
2019-06-09T05:35:01.186Z,2.70
2019-06-09T05:35:58.782Z,2.90
2019-06-09T05:37:17.190Z,2.70
2019-06-09T05:38:01.721Z,2.60
2019-06-09T05:39:01.124Z,2.70
2019-06-09T05:40:01.465Z,2.50
2019-06-09T05:41:02.106Z,2.50
2019-06-09T05:42:02.108Z,2.40
2019-06-09T05:43:03.611Z,2.30
2019-06-09T05:44:01.756Z,2.40
2019-06-09T05:45:02.102Z,2.60
2019-06-09T05:46:01.426Z,2.40
2019-06-09T05:47:00.829Z,2.60
2019-06-09T05:48:01.354Z,2.70
2019-06-09T05:49:01.182Z,2.40
2019-06-09T05:50:01.405Z,2.50
2019-06-09T05:51:01.618Z,2.20
2019-06-09T05:52:03.596Z,2.50
2019-06-09T05:53:02.066Z,2.50
2019-06-09T05:54:02.284Z,2.30
2019-06-09T05:55:02.503Z,2.30
2019-06-09T05:56:04.600Z,2.40
2019-06-09T05:57:04.614Z,2.20
2019-06-09T05:58:04.068Z,2.30
2019-06-09T05:59:03.268Z,2.40
2019-06-09T06:00:03.489Z,2.70
2019-06-09T06:01:03.716Z,2.40
2019-06-09T06:02:03.852Z,2.20
2019-06-09T06:03:05.604Z,2.30
2019-06-09T06:04:04.174Z,2.30
2019-06-09T06:05:06.104Z,2.50
2019-06-09T06:06:04.575Z,2.30
2019-06-09T06:07:16.714Z,2.20
2019-06-09T06:08:05.036Z,2.30
2019-06-09T06:09:11.328Z,2.00
2019-06-09T06:10:05.427Z,2.20
2019-06-09T06:11:10.979Z,2.20
2019-06-09T06:12:07.610Z,2.10
2019-06-09T06:13:05.959Z,2.10
2019-06-09T06:14:08.104Z,2.10
2019-06-09T06:15:08.145Z,2.00
2019-06-09T06:16:06.488Z,2.10
2019-06-09T06:17:06.702Z,2.10
2019-06-09T06:18:06.905Z,2.20
2019-06-09T06:19:11.243Z,2.30
2019-06-09T06:20:11.884Z,2.30
2019-06-09T06:21:07.488Z,2.10
2019-06-09T06:22:07.707Z,2.20
2019-06-09T06:23:10.615Z,2.40
2019-06-09T06:24:11.333Z,2.20
2019-06-09T06:25:13.540Z,2.20
2019-06-09T06:26:11.423Z,2.50
2019-06-09T06:27:11.249Z,2.40
2019-06-09T06:28:11.078Z,2.30
2019-06-09T06:29:13.556Z,2.20
2019-06-09T06:30:12.115Z,2.00
2019-06-09T06:31:12.062Z,2.10
2019-06-09T06:32:11.768Z,2.20
2019-06-09T06:33:21.595Z,2.10
2019-06-09T06:34:11.811Z,2.10
2019-06-09T06:35:25.604Z,2.00
2019-06-09T06:36:10.821Z,2.00
2019-06-09T06:37:12.123Z,2.00
2019-06-09T06:38:34.758Z,2.20
2019-06-09T06:39:12.555Z,2.10
2019-06-09T06:40:13.105Z,1.80
2019-06-09T06:41:13.125Z,1.90
2019-06-09T06:42:21.050Z,1.90
2019-06-09T06:43:11.684Z,2.30
2019-06-09T06:44:15.613Z,2.10
2019-06-09T06:45:12.105Z,1.90
2019-06-09T06:46:24.341Z,2.10
2019-06-09T06:47:16.674Z,1.90
2019-06-09T06:48:14.129Z,2.20
2019-06-09T06:49:16.601Z,2.00
2019-06-09T06:50:31.540Z,1.90
2019-06-09T06:51:17.124Z,2.00
2019-06-09T06:52:13.339Z,2.00
2019-06-09T06:53:15.109Z,2.10
2019-06-09T06:54:15.557Z,2.20
2019-06-09T06:55:15.609Z,2.00
2019-06-09T06:56:15.647Z,2.00
2019-06-09T06:57:16.388Z,1.80
2019-06-09T06:58:16.134Z,2.00
2019-06-09T06:59:16.131Z,2.20
2019-06-09T07:00:16.635Z,2.10
2019-06-09T07:01:14.846Z,2.00
2019-06-09T07:02:16.604Z,2.20
2019-06-09T07:03:38.807Z,1.80
2019-06-09T07:04:16.572Z,1.60
2019-06-09T07:05:16.583Z,1.90
2019-06-09T07:06:17.623Z,1.70
2019-06-09T07:07:25.050Z,1.50
2019-06-09T07:08:20.911Z,1.30
2019-06-09T07:09:18.109Z,1.50
2019-06-09T07:10:18.118Z,1.60
2019-06-09T07:11:16.597Z,1.60
2019-06-09T07:12:20.695Z,1.60
2019-06-09T07:13:21.366Z,1.70
2019-06-09T07:14:20.713Z,1.50
2019-06-09T07:15:17.399Z,1.50
2019-06-09T07:16:20.862Z,1.40
2019-06-09T07:17:17.874Z,1.70
2019-06-09T07:18:21.376Z,1.30
2019-06-09T07:19:34.111Z,1.80
2019-06-09T07:20:18.445Z,1.60
2019-06-09T07:21:22.637Z,1.80
2019-06-09T07:22:21.224Z,1.60
2019-06-09T07:23:20.995Z,1.60
2019-06-09T07:24:21.236Z,1.70
2019-06-09T07:25:20.983Z,1.60
2019-06-09T07:26:21.140Z,1.70
2019-06-09T07:27:45.750Z,1.50
2019-06-09T07:28:21.623Z,1.80
2019-06-09T07:29:23.612Z,1.50
2019-06-09T07:30:24.118Z,1.30
2019-06-09T07:31:20.933Z,1.70
2019-06-09T07:32:21.445Z,1.50
2019-06-09T07:33:22.595Z,1.70
2019-06-09T07:34:27.661Z,1.20
2019-06-09T07:35:24.716Z,1.40
2019-06-09T07:36:28.127Z,1.40
2019-06-09T07:37:23.151Z,1.60
2019-06-09T07:38:27.911Z,1.10
2019-06-09T07:39:23.621Z,1.20
2019-06-09T07:40:24.575Z,1.30
2019-06-09T07:41:23.228Z,1.30
2019-06-09T07:42:26.416Z,1.40
2019-06-09T07:43:31.715Z,1.10
2019-06-09T07:44:24.941Z,1.10
2019-06-09T07:45:23.966Z,1.00
2019-06-09T07:46:25.108Z,1.20
2019-06-09T07:47:23.895Z,1.20
2019-06-09T07:48:25.115Z,1.20
2019-06-09T07:49:27.564Z,1.00
2019-06-09T07:50:27.627Z,1.10
2019-06-09T07:51:27.614Z,1.00
2019-06-09T07:52:27.150Z,1.10
2019-06-09T07:53:26.114Z,1.10
2019-06-09T07:54:26.131Z,1.10
2019-06-09T07:56:56.591Z,1.30
2019-06-09T07:58:04.374Z,1.00
2019-06-09T07:59:01.335Z,1.20
2019-06-09T08:00:01.645Z,1.10
2019-06-09T08:01:00.814Z,1.30
2019-06-09T08:02:02.530Z,1.30
2019-06-09T08:03:02.085Z,1.30
2019-06-09T08:04:00.944Z,1.30
2019-06-09T08:05:01.270Z,1.10
2019-06-09T08:06:00.457Z,1.30
2019-06-09T08:07:01.208Z,1.20
2019-06-09T08:07:58.566Z,1.00
2019-06-09T08:09:02.068Z,1.20
2019-06-09T08:10:01.271Z,1.20
2019-06-09T08:11:01.011Z,1.10
2019-06-09T08:12:01.591Z,1.10
2019-06-09T08:13:03.383Z,1.20
2019-06-09T08:14:01.583Z,1.00
2019-06-09T08:15:01.741Z,1.10
2019-06-09T08:16:01.925Z,1.10
2019-06-09T08:17:02.804Z,1.10
2019-06-09T08:18:03.321Z,1.20
2019-06-09T08:19:04.363Z,1.00
2019-06-09T08:20:01.513Z,1.10
2019-06-09T08:21:01.323Z,1.20
2019-06-09T08:22:02.864Z,1.10
2019-06-09T08:23:01.344Z,1.00
2019-06-09T08:24:03.978Z,1.00
2019-06-09T08:25:03.370Z,1.00
2019-06-09T08:26:02.843Z,1.10
2019-06-09T08:27:04.408Z,0.90
2019-06-09T08:28:03.919Z,1.10
2019-06-09T08:29:02.383Z,1.10
2019-06-09T08:30:09.709Z,1.10
2019-06-09T08:31:03.389Z,1.10
2019-06-09T08:32:04.864Z,1.10
2019-06-09T08:33:06.324Z,1.10
2019-06-09T08:34:03.473Z,1.00
2019-06-09T08:35:18.259Z,1.10
2019-06-09T08:36:04.266Z,0.80
2019-06-09T08:37:06.326Z,0.90
2019-06-09T08:38:06.635Z,1.00
2019-06-09T08:39:14.393Z,1.10
2019-06-09T08:40:04.567Z,1.00
2019-06-09T08:41:21.719Z,1.10
2019-06-09T08:42:10.713Z,1.10
2019-06-09T08:43:07.820Z,1.00
2019-06-09T08:44:26.326Z,1.10
2019-06-09T08:45:06.338Z,1.00
2019-06-09T08:46:07.078Z,1.20
2019-06-09T08:47:05.858Z,1.00
2019-06-09T08:48:31.030Z,0.90
2019-06-09T08:49:07.863Z,1.00
2019-06-09T08:50:11.626Z,1.30
2019-06-09T08:51:07.366Z,1.00
2019-06-09T08:52:10.591Z,1.00
2019-06-09T08:53:11.306Z,1.10
2019-06-09T08:54:22.866Z,1.00
2019-06-09T08:55:07.197Z,0.90
2019-06-09T08:56:11.577Z,1.10
2019-06-09T08:57:11.342Z,1.00
2019-06-09T08:58:11.087Z,1.00
2019-06-09T08:59:15.859Z,1.10
2019-06-09T09:00:11.654Z,1.50
2019-06-09T09:01:11.638Z,1.20
2019-06-09T09:02:11.534Z,1.10
2019-06-09T09:03:11.036Z,1.20
2019-06-09T09:04:14.942Z,0.90
2019-06-09T09:05:10.537Z,1.10
2019-06-09T09:06:11.044Z,1.00
2019-06-09T09:07:11.398Z,1.10
2019-06-09T09:08:10.961Z,1.20
2019-06-09T09:09:21.724Z,0.90
2019-06-09T09:10:13.872Z,1.00
2019-06-09T09:11:14.993Z,1.00
2019-06-09T09:12:12.424Z,1.00
2019-06-09T09:13:12.885Z,1.00
2019-06-09T09:14:16.027Z,0.90
2019-06-09T09:15:12.872Z,1.20
2019-06-09T09:16:12.368Z,1.00
2019-06-09T09:17:13.823Z,1.10
2019-06-09T09:18:15.367Z,1.10
2019-06-09T09:19:14.137Z,1.00
2019-06-09T09:20:41.787Z,1.00
2019-06-09T09:21:13.740Z,1.00
2019-06-09T09:22:21.725Z,0.90
2019-06-09T09:23:15.692Z,0.70
2019-06-09T09:24:47.656Z,1.00
2019-06-09T09:25:20.675Z,0.90
2019-06-09T09:26:16.126Z,1.10
2019-06-09T09:27:16.449Z,1.10
2019-06-09T09:28:15.129Z,1.00
2019-06-09T09:29:17.501Z,1.10
2019-06-09T09:30:17.510Z,1.10
2019-06-09T09:31:17.915Z,1.10
2019-06-09T09:33:47.561Z,1.10
2019-06-09T09:34:50.133Z,1.10
2019-06-09T09:35:54.074Z,1.20
2019-06-09T09:36:52.637Z,1.00
2019-06-09T09:37:52.295Z,1.10
2019-06-09T09:38:53.666Z,1.10
2019-06-09T09:39:54.441Z,1.20
2019-06-09T09:40:53.196Z,1.10
2019-06-09T09:41:56.945Z,1.00
2019-06-09T09:44:12.099Z,1.20
2019-06-09T09:45:04.941Z,1.10
2019-06-09T09:45:53.699Z,1.10
2019-06-09T09:46:50.781Z,1.00
2019-06-09T09:48:06.176Z,1.20
2019-06-09T09:49:00.712Z,1.00
2019-06-09T09:49:54.253Z,1.00
2019-06-09T09:50:54.267Z,1.00
2019-06-09T09:51:55.489Z,1.00
2019-06-09T09:52:54.745Z,1.30
2019-06-09T09:53:54.237Z,1.00
2019-06-09T09:54:54.163Z,1.00
2019-06-09T09:55:54.131Z,1.00
2019-06-09T09:56:55.385Z,0.90
2019-06-09T09:57:54.660Z,1.20
2019-06-09T09:58:55.111Z,0.90
2019-06-09T09:59:55.146Z,1.00
2019-06-09T10:00:54.819Z,1.00
2019-06-09T10:01:58.029Z,1.00
2019-06-09T10:02:57.579Z,1.20
2019-06-09T10:03:54.238Z,0.80
2019-06-09T10:04:55.859Z,1.20
2019-06-09T10:05:55.232Z,1.00
2019-06-09T10:06:56.270Z,1.00
2019-06-09T10:08:11.630Z,1.10
2019-06-09T10:08:59.130Z,0.70
2019-06-09T10:10:00.951Z,1.10
2019-06-09T10:10:57.492Z,0.90
2019-06-09T10:11:57.234Z,1.00
2019-06-09T10:12:56.176Z,1.00
2019-06-09T10:13:58.875Z,1.00
2019-06-09T10:14:56.370Z,0.80
2019-06-09T10:15:58.645Z,0.90
2019-06-09T10:16:57.836Z,1.10
2019-06-09T10:17:57.618Z,0.80
2019-06-09T10:18:57.862Z,1.00
2019-06-09T10:19:59.560Z,0.80
2019-06-09T10:20:59.988Z,1.10
2019-06-09T10:21:58.250Z,1.00
2019-06-09T10:23:03.473Z,1.00
2019-06-09T10:24:01.480Z,0.90
2019-06-09T10:25:08.678Z,1.10
2019-06-09T10:25:58.574Z,1.10
2019-06-09T10:26:58.143Z,1.00
2019-06-09T10:28:04.944Z,1.00
2019-06-09T10:28:58.275Z,1.10
2019-06-09T10:30:01.867Z,0.90
2019-06-09T10:31:02.773Z,1.00
2019-06-09T10:32:04.936Z,1.00
2019-06-09T10:33:07.202Z,0.90
2019-06-09T10:33:58.231Z,1.10
2019-06-09T10:35:03.741Z,1.20
2019-06-09T10:36:02.119Z,0.90
2019-06-09T10:37:06.089Z,1.20
2019-06-09T10:38:00.300Z,1.00
2019-06-09T10:39:05.092Z,1.00
2019-06-09T10:40:12.416Z,1.10
2019-06-09T10:41:04.840Z,0.90
2019-06-09T10:42:03.513Z,1.00
2019-06-09T10:43:04.159Z,0.90
2019-06-09T10:44:04.012Z,0.90
2019-06-09T10:45:04.426Z,1.00
2019-06-09T10:46:04.396Z,1.00
2019-06-09T10:47:09.763Z,1.10
2019-06-09T10:48:03.538Z,1.20
2019-06-09T10:49:04.235Z,1.10
2019-06-09T10:50:04.216Z,1.00
2019-06-09T10:51:05.601Z,0.90
2019-06-09T10:52:04.003Z,1.10
2019-06-09T10:53:06.620Z,1.10
2019-06-09T10:54:03.511Z,0.90
2019-06-09T10:55:04.087Z,1.10
2019-06-09T10:56:06.350Z,1.00
2019-06-09T10:57:04.427Z,1.00
2019-06-09T10:58:06.020Z,1.20
2019-06-09T10:59:04.505Z,0.90
2019-06-09T11:00:25.788Z,1.00
2019-06-09T11:01:08.578Z,1.00
2019-06-09T11:02:04.752Z,1.10
2019-06-09T11:03:03.409Z,1.20
2019-06-09T11:04:07.460Z,1.00
2019-06-09T11:05:12.055Z,1.20
2019-06-09T11:06:05.081Z,1.10
2019-06-09T11:07:08.009Z,1.20
2019-06-09T11:08:05.284Z,1.00
2019-06-09T11:09:12.310Z,1.10
2019-06-09T11:10:21.236Z,1.20
2019-06-09T11:11:05.969Z,1.20
2019-06-09T11:12:05.718Z,1.20
2019-06-09T11:13:07.005Z,1.00
2019-06-09T11:14:07.015Z,1.10
2019-06-09T11:15:05.955Z,1.10
2019-06-09T11:16:14.457Z,1.10
2019-06-09T11:17:06.877Z,1.00
2019-06-09T11:18:08.012Z,1.00
2019-06-09T11:19:11.118Z,1.10
2019-06-09T11:20:08.192Z,1.00
2019-06-09T11:21:06.727Z,1.10
2019-06-09T11:22:06.968Z,1.00
2019-06-09T11:23:08.157Z,1.00
2019-06-09T11:24:10.658Z,0.90
2019-06-09T11:25:15.272Z,1.20
2019-06-09T11:26:11.576Z,1.00
2019-06-09T11:27:09.364Z,1.10
2019-06-09T11:28:11.562Z,1.00
2019-06-09T11:29:12.003Z,1.20
2019-06-09T11:30:14.696Z,1.00
2019-06-09T11:31:12.517Z,1.20
2019-06-09T11:32:16.650Z,1.10
2019-06-09T11:33:11.416Z,0.90
2019-06-09T11:34:13.003Z,1.10
2019-06-09T11:35:11.214Z,1.00
2019-06-09T11:36:10.657Z,1.00
2019-06-09T11:37:11.395Z,1.10
2019-06-09T11:38:12.384Z,1.00
2019-06-09T11:39:12.002Z,1.10
2019-06-09T11:40:14.397Z,1.20
2019-06-09T11:41:14.056Z,1.20
2019-06-09T11:42:14.963Z,1.30
2019-06-09T11:43:11.771Z,1.30
2019-06-09T11:44:12.711Z,1.10
2019-06-09T11:45:14.675Z,1.00
2019-06-09T11:46:20.952Z,1.10
2019-06-09T11:47:13.546Z,1.10
2019-06-09T11:48:13.322Z,1.10
2019-06-09T11:49:15.576Z,1.10
2019-06-09T11:50:12.255Z,1.00
2019-06-09T11:51:14.036Z,1.00
2019-06-09T11:52:14.199Z,1.00
2019-06-09T11:53:14.882Z,1.30
2019-06-09T11:54:16.446Z,1.20
2019-06-09T11:55:14.770Z,1.30
2019-06-09T11:56:16.021Z,1.20
2019-06-09T11:58:14.989Z,1.10
2019-06-09T12:00:18.353Z,1.20
2019-06-09T12:01:15.036Z,1.20
2019-06-09T12:02:14.144Z,1.20
2019-06-09T12:03:13.818Z,1.10
2019-06-09T12:04:14.055Z,1.30
2019-06-09T12:05:16.031Z,1.20
2019-06-09T12:06:16.472Z,1.30
2019-06-09T12:07:26.487Z,1.20
2019-06-09T12:08:15.461Z,1.10
2019-06-09T12:09:18.604Z,1.20
2019-06-09T12:10:21.569Z,1.10
2019-06-09T12:11:21.339Z,1.00
2019-06-09T12:12:17.008Z,1.00
2019-06-09T12:13:22.232Z,1.00
2019-06-09T12:14:15.846Z,0.90
2019-06-09T12:15:17.067Z,1.10
2019-06-09T12:16:16.428Z,1.10
2019-06-09T12:17:16.594Z,1.10
2019-06-09T12:18:21.880Z,1.20
2019-06-09T12:19:16.937Z,1.10
2019-06-09T12:20:22.180Z,1.20
2019-06-09T12:21:21.213Z,1.20
2019-06-09T12:22:17.502Z,1.10
2019-06-09T12:23:31.517Z,0.90
2019-06-09T12:24:17.981Z,1.10
2019-06-09T12:25:21.911Z,1.10
2019-06-09T12:26:21.351Z,1.30
2019-06-09T12:27:21.471Z,1.00
2019-06-09T12:28:22.836Z,1.30
2019-06-09T12:29:22.209Z,1.10
2019-06-09T12:30:20.743Z,1.30
2019-06-09T12:31:22.673Z,1.20
2019-06-09T12:32:21.507Z,1.10
2019-06-09T12:33:27.513Z,1.20
2019-06-09T12:34:23.670Z,1.10
2019-06-09T12:35:27.548Z,1.10
2019-06-09T12:36:21.973Z,1.40
2019-06-09T12:37:24.035Z,1.00
2019-06-09T12:38:21.441Z,1.00
2019-06-09T12:39:26.470Z,1.20
2019-06-09T12:40:22.534Z,1.00
2019-06-09T12:41:29.418Z,1.10
2019-06-09T12:42:25.324Z,1.30
2019-06-09T12:43:21.843Z,1.10
2019-06-09T12:44:31.920Z,1.30
2019-06-09T12:45:23.190Z,1.20
2019-06-09T12:46:24.231Z,1.20
2019-06-09T12:47:23.336Z,1.50
2019-06-09T12:48:23.253Z,1.30
2019-06-09T12:49:24.056Z,1.10
2019-06-09T12:50:31.173Z,0.90
2019-06-09T12:51:22.892Z,1.10
2019-06-09T12:52:44.157Z,1.10
2019-06-09T12:53:23.292Z,1.60
2019-06-09T12:54:23.519Z,1.40
2019-06-09T12:55:23.757Z,1.50
2019-06-09T12:56:23.860Z,1.30
2019-06-09T12:57:26.019Z,1.00
2019-06-09T12:58:24.321Z,1.20
2019-06-09T12:59:26.071Z,1.30
2019-06-09T13:02:42.249Z,1.10
2019-06-09T13:04:21.781Z,1.10
2019-06-09T13:05:23.762Z,1.10
2019-06-09T13:06:22.221Z,1.20
2019-06-09T13:07:21.961Z,1.20
2019-06-09T13:08:18.113Z,1.20
2019-06-09T13:10:31.716Z,1.30
2019-06-09T13:11:32.930Z,1.30
2019-06-09T13:12:36.309Z,1.20
2019-06-09T13:13:20.558Z,1.20
2019-06-09T13:14:21.215Z,2.50
2019-06-09T13:15:23.075Z,3.10
2019-06-09T13:16:31.025Z,1.60
2019-06-09T13:17:21.557Z,1.30
2019-06-09T13:18:21.552Z,1.20
2019-06-09T13:19:21.931Z,1.30
2019-06-09T13:20:23.298Z,1.20
2019-06-09T13:21:23.011Z,1.20
2019-06-09T13:22:21.483Z,2.20
2019-06-09T13:23:27.562Z,2.00
2019-06-09T13:24:22.597Z,2.30
2019-06-09T13:25:21.029Z,2.60
2019-06-09T13:26:23.067Z,1.10
2019-06-09T13:27:23.048Z,1.10
2019-06-09T13:28:23.596Z,3.30
2019-06-09T13:29:24.598Z,10.90
2019-06-09T13:30:23.075Z,2.10
2019-06-09T13:31:22.303Z,1.50